Time;durP1;ratioP1;P1;durP2;ratioP2;P2;SDS_P1;SDS_P2;PMS_P1;PMS_P2;Temp;Humidity;BMP_temperature;BMP_pressure;BME280_temperature;BME280_humidity;BME280_pressure;Samples;Min_cycle;Max_cycle;Signal;HPM_P1;HPM_P2
2023/05/08 00:01:40;;;;;;;4.90;3.15;;;;;;;;;;5079939;28;20032;-83
2023/05/08 00:04:06;;;;;;;5.25;2.70;;;;;;;;;;5079811;28;20032;-80
2023/05/08 00:06:31;;;;;;;6.50;3.47;;;;;;;;;;5077841;28;20043;-83
2023/05/08 00:08:57;;;;;;;5.22;3.45;;;;;;;;;;5080695;28;20448;-81
2023/05/08 00:11:22;;;;;;;5.07;3.60;;;;;;;;;;5076499;28;20035;-83
2023/05/08 00:13:48;;;;;;;9.15;3.10;;;;;;;;;;5082767;28;20106;-83
2023/05/08 00:16:16;;;;;;;5.97;3.20;;;;;;;;;;5080257;28;20047;-82
2023/05/08 00:18:42;;;;;;;5.35;3.30;;;;;;;;;;5084642;28;20028;-82
2023/05/08 00:21:07;;;;;;;5.50;3.35;;;;;;;;;;5080891;28;20471;-81
2023/05/08 00:23:35;;;;;;;4.68;3.33;;;;;;;;;;5106908;27;20036;-82
2023/05/08 00:26:01;;;;;;;5.35;3.00;;;;;;;;;;5081086;28;20475;-84
2023/05/08 00:28:31;;;;;;;5.40;3.63;;;;;;;;;;5079726;28;20073;-83
2023/05/08 00:31:00;;;;;;;5.28;3.40;;;;;;;;;;5079001;28;20491;-81
2023/05/08 00:33:25;;;;;;;4.30;3.17;;;;;;;;;;5105418;27;20036;-82
2023/05/08 00:35:57;;;;;;;4.85;3.30;;;;;;;;;;5079463;28;20047;-83
2023/05/08 00:38:23;;;;;;;4.53;3.22;;;;;;;;;;5083295;28;20034;-83
2023/05/08 00:40:51;;;;;;;4.95;3.35;;;;;;;;;;5071511;28;20104;-82
2023/05/08 00:43:17;;;;;;;7.60;3.78;;;;;;;;;;5073005;28;20042;-81
2023/05/08 00:45:42;;;;;;;7.88;3.40;;;;;;;;;;5078548;28;20036;-82
2023/05/08 00:48:08;;;;;;;5.55;2.78;;;;;;;;;;5083258;28;20055;-83
2023/05/08 00:50:34;;;;;;;5.28;3.40;;;;;;;;;;5081649;28;20032;-81
2023/05/08 00:53:02;;;;;;;6.05;3.33;;;;;;;;;;5081260;28;20051;-82
2023/05/08 00:55:28;;;;;;;5.75;3.25;;;;;;;;;;5086603;28;20027;-82
2023/05/08 00:57:54;;;;;;;6.60;3.83;;;;;;;;;;5079341;28;20563;-81
2023/05/08 01:00:21;;;;;;;7.40;3.50;;;;;;;;;;5074050;28;20059;-83
2023/05/08 01:02:46;;;;;;;7.50;3.15;;;;;;;;;;5080366;28;20111;-83
2023/05/08 01:05:12;;;;;;;6.15;3.42;;;;;;;;;;5077197;28;20056;-82
2023/05/08 01:07:37;;;;;;;5.57;3.05;;;;;;;;;;5081581;28;20028;-82
2023/05/08 01:10:04;;;;;;;7.47;3.00;;;;;;;;;;5089038;28;20028;-84
2023/05/08 01:12:33;;;;;;;4.25;3.33;;;;;;;;;;5082377;28;20391;-83
2023/05/08 01:15:12;;;;;;;10.88;3.47;;;;;;;;;;5076467;28;20020;-83
2023/05/08 01:18:05;;;;;;;6.53;4.40;;;;;;;;;;5084696;28;20036;-83
2023/05/08 01:20:56;;;;;;;7.22;5.78;;;;;;;;;;5063285;28;20119;-81
2023/05/08 01:23:55;;;;;;;4.60;3.38;;;;;;;;;;5082258;28;20039;-83
2023/05/08 01:26:39;;;;;;;4.45;3.33;;;;;;;;;;5082261;28;20016;-81
2023/05/08 01:29:26;;;;;;;6.63;3.13;;;;;;;;;;5083963;28;20104;-83
2023/05/08 01:32:16;;;;;;;8.88;3.30;;;;;;;;;;5083220;28;20027;-84
2023/05/08 01:34:57;;;;;;;;;;;;;;;;;;5079307;28;20484;-82
2023/05/08 01:37:41;;;;;;;6.60;2.80;;;;;;;;;;5074270;28;19980;-81
2023/05/08 01:40:31;;;;;;;5.82;3.33;;;;;;;;;;5087536;28;20028;-82
2023/05/08 01:43:09;;;;;;;7.03;4.30;;;;;;;;;;5086635;28;20028;-84
2023/05/08 01:45:39;;;;;;;4.88;3.38;;;;;;;;;;5077300;28;20056;-83
2023/05/08 01:48:09;;;;;;;6.88;3.15;;;;;;;;;;5074465;28;20024;-83
2023/05/08 01:50:45;;;;;;;6.68;3.25;;;;;;;;;;5069002;28;20036;-84
2023/05/08 01:53:40;;;;;;;6.32;3.28;;;;;;;;;;5072983;28;20033;-84
2023/05/08 01:56:12;;;;;;;6.22;2.72;;;;;;;;;;5066429;28;20131;-83
2023/05/08 01:58:38;;;;;;;9.45;3.80;;;;;;;;;;5084822;28;20066;-82
2023/05/08 02:01:05;;;;;;;6.63;3.92;;;;;;;;;;5082399;28;20035;-83
2023/05/08 02:03:33;;;;;;;6.35;3.70;;;;;;;;;;5078000;28;20535;-84
2023/05/08 02:06:00;;;;;;;6.25;4.22;;;;;;;;;;5074659;28;20178;-82
2023/05/08 02:08:26;;;;;;;8.40;3.88;;;;;;;;;;5078465;28;20020;-85
2023/05/08 02:10:53;;;;;;;5.65;3.65;;;;;;;;;;5084529;28;20020;-82
2023/05/08 02:13:20;;;;;;;5.55;3.58;;;;;;;;;;5076488;28;20020;-84
2023/05/08 02:15:52;;;;;;;5.55;3.67;;;;;;;;;;5082874;28;20027;-83
2023/05/08 02:18:30;;;;;;;5.50;4.22;;;;;;;;;;5084588;28;20024;-82
2023/05/08 02:21:03;;;;;;;4.45;2.92;;;;;;;;;;5084544;28;20070;-81
2023/05/08 02:23:35;;;;;;;5.65;3.58;;;;;;;;;;5107609;27;20025;-82
2023/05/08 02:26:08;;;;;;;4.80;3.47;;;;;;;;;;5075750;28;20036;-83
2023/05/08 02:28:34;;;;;;;6.53;4.07;;;;;;;;;;5074151;28;20040;-84
2023/05/08 02:31:01;;;;;;;5.40;4.05;;;;;;;;;;5075664;28;20040;-82
2023/05/08 02:33:28;;;;;;;4.70;3.25;;;;;;;;;;5089030;28;20024;-84
2023/05/08 02:35:56;;;;;;;4.00;3.38;;;;;;;;;;5083806;28;20053;-83
2023/05/08 02:38:24;;;;;;;5.70;3.63;;;;;;;;;;5083703;28;20082;-81
2023/05/08 02:40:54;;;;;;;6.63;4.50;;;;;;;;;;5091136;28;20450;-82
2023/05/08 02:43:23;;;;;;;4.93;3.28;;;;;;;;;;5075179;28;20028;-80
2023/05/08 02:46:03;;;;;;;5.40;3.58;;;;;;;;;;5079404;28;20476;-83
2023/05/08 02:48:57;;;;;;;5.03;3.28;;;;;;;;;;5076031;28;20024;-84
2023/05/08 02:51:42;;;;;;;5.68;3.75;;;;;;;;;;5085110;28;20031;-82
2023/05/08 02:54:17;;;;;;;6.15;3.17;;;;;;;;;;5072060;28;20038;-82
2023/05/08 02:56:45;;;;;;;6.93;4.78;;;;;;;;;;5073326;28;20036;-84
2023/05/08 02:59:45;;;;;;;8.50;4.22;;;;;;;;;;5076065;28;20055;-83
2023/05/08 03:02:21;;;;;;;7.28;4.18;;;;;;;;;;5044304;28;20035;-83
2023/05/08 03:04:54;;;;;;;7.78;3.95;;;;;;;;;;5075554;28;20343;-85
2023/05/08 03:07:24;;;;;;;4.45;3.35;;;;;;;;;;5077677;28;20024;-83
2023/05/08 03:09:51;;;;;;;;;;;;;;;;;;5078078;28;20099;-82
2023/05/08 03:12:23;;;;;;;6.00;3.42;;;;;;;;;;5077260;28;19928;-83
2023/05/08 03:14:58;;;;;;;6.95;4.05;;;;;;;;;;5076927;28;20488;-81
2023/05/08 03:17:30;;;;;;;5.70;3.15;;;;;;;;;;5077947;28;20028;-81
2023/05/08 03:20:00;;;;;;;6.55;3.90;;;;;;;;;;5079633;28;20384;-82
2023/05/08 03:22:27;;;;;;;7.05;3.80;;;;;;;;;;5078723;28;20411;-83
2023/05/08 03:24:58;;;;;;;4.78;2.83;;;;;;;;;;5087208;28;20040;-81
2023/05/08 03:27:26;;;;;;;4.00;3.10;;;;;;;;;;5074385;28;20060;-81
2023/05/08 03:29:54;;;;;;;8.70;4.35;;;;;;;;;;5081485;28;20354;-83
2023/05/08 03:32:21;;;;;;;5.75;3.88;;;;;;;;;;5091040;28;20123;-83
2023/05/08 03:35:01;;;;;;;5.45;3.63;;;;;;;;;;5075229;28;20472;-83
2023/05/08 03:37:27;;;;;;;6.25;3.63;;;;;;;;;;5073323;28;20052;-82
2023/05/08 03:39:55;;;;;;;5.38;3.55;;;;;;;;;;5079726;28;20024;-83
2023/05/08 03:42:24;;;;;;;6.47;3.38;;;;;;;;;;5082608;28;20059;-83
2023/05/08 03:44:51;;;;;;;5.88;3.92;;;;;;;;;;5078926;28;20036;-83
2023/05/08 03:47:18;;;;;;;5.60;3.53;;;;;;;;;;5078625;28;20025;-81
2023/05/08 03:49:48;;;;;;;6.43;4.18;;;;;;;;;;5082880;28;20032;-82
2023/05/08 03:52:15;;;;;;;6.13;4.22;;;;;;;;;;5079411;28;20020;-83
2023/05/08 03:54:41;;;;;;;4.22;2.88;;;;;;;;;;5075268;28;20361;-81
2023/05/08 03:57:10;;;;;;;6.65;4.20;;;;;;;;;;5085588;28;20444;-84
2023/05/08 03:59:53;;;;;;;7.30;4.15;;;;;;;;;;5072663;28;20035;-82
2023/05/08 04:02:35;;;;;;;7.00;4.72;;;;;;;;;;5081796;28;20024;-83
2023/05/08 04:05:14;;;;;;;9.68;3.83;;;;;;;;;;5082195;28;20480;-83
2023/05/08 04:07:56;;;;;;;6.22;3.58;;;;;;;;;;5078906;28;20016;-82
2023/05/08 04:10:32;;;;;;;6.35;3.97;;;;;;;;;;5077752;28;20046;-81
2023/05/08 04:13:08;;;;;;;8.07;3.80;;;;;;;;;;5072195;28;20033;-81
2023/05/08 04:15:49;;;;;;;8.52;3.72;;;;;;;;;;5079083;28;20068;-82
2023/05/08 04:18:18;;;;;;;6.40;4.15;;;;;;;;;;5082767;28;20068;-82
2023/05/08 04:20:49;;;;;;;8.30;4.65;;;;;;;;;;5084088;28;20107;-82
2023/05/08 04:23:19;;;;;;;6.90;4.82;;;;;;;;;;5089251;28;20039;-81
2023/05/08 04:25:47;;;;;;;5.85;3.92;;;;;;;;;;5082267;28;20024;-82
2023/05/08 04:28:13;;;;;;;6.20;4.15;;;;;;;;;;5082993;28;20035;-81
2023/05/08 04:30:39;;;;;;;8.18;3.75;;;;;;;;;;5078939;28;20027;-83
2023/05/08 04:33:06;;;;;;;10.77;3.97;;;;;;;;;;5078071;28;20024;-82
2023/05/08 04:35:32;;;;;;;6.13;3.72;;;;;;;;;;5079746;28;20036;-82
2023/05/08 04:37:58;;;;;;;5.78;3.63;;;;;;;;;;5077241;28;20036;-82
2023/05/08 04:40:24;;;;;;;5.60;3.45;;;;;;;;;;5081075;28;20494;-81
2023/05/08 04:42:50;;;;;;;5.05;3.85;;;;;;;;;;5115133;27;20024;-81
2023/05/08 04:45:15;;;;;;;6.22;3.95;;;;;;;;;;5076187;28;20052;-81
2023/05/08 04:47:41;;;;;;;6.13;3.78;;;;;;;;;;5072393;28;20115;-81
2023/05/08 04:50:06;;;;;;;5.05;3.35;;;;;;;;;;5072657;28;20089;-81
2023/05/08 04:52:32;;;;;;;10.60;4.15;;;;;;;;;;5083902;28;20067;-82
2023/05/08 04:54:57;;;;;;;5.97;4.20;;;;;;;;;;5086294;28;20024;-82
2023/05/08 04:57:23;;;;;;;6.30;4.35;;;;;;;;;;5083748;28;20052;-82
2023/05/08 04:59:48;;;;;;;6.43;3.92;;;;;;;;;;5079605;28;20058;-83
2023/05/08 05:02:14;;;;;;;8.02;3.70;;;;;;;;;;5069696;28;20036;-84
2023/05/08 05:04:39;;;;;;;4.75;3.75;;;;;;;;;;5082296;28;20105;-82
2023/05/08 05:07:05;;;;;;;7.65;3.55;;;;;;;;;;5071457;28;20028;-83
2023/05/08 05:09:30;;;;;;;8.50;4.05;;;;;;;;;;5074898;28;20029;-82
2023/05/08 05:11:55;;;;;;;7.43;4.18;;;;;;;;;;5072764;28;20064;-81
2023/05/08 05:14:21;;;;;;;7.53;4.05;;;;;;;;;;5084295;28;20020;-82
2023/05/08 05:16:46;;;;;;;5.10;3.58;;;;;;;;;;5075009;28;20085;-81
2023/05/08 05:19:12;;;;;;;5.63;3.65;;;;;;;;;;5077804;28;20063;-82
2023/05/08 05:21:38;;;;;;;6.60;3.78;;;;;;;;;;5082868;28;20601;-81
2023/05/08 05:24:05;;;;;;;6.80;3.10;;;;;;;;;;5083514;28;20020;-81
2023/05/08 05:26:30;;;;;;;6.68;4.13;;;;;;;;;;5074293;28;20127;-81
2023/05/08 05:28:56;;;;;;;6.38;3.45;;;;;;;;;;5078770;28;20174;-84
2023/05/08 05:31:21;;;;;;;3.83;3.10;;;;;;;;;;5082023;28;20032;-84
2023/05/08 05:33:46;;;;;;;10.65;3.38;;;;;;;;;;5076102;28;20063;-84
2023/05/08 05:36:12;;;;;;;5.93;3.53;;;;;;;;;;5080021;28;20097;-83
2023/05/08 05:38:37;;;;;;;6.72;3.65;;;;;;;;;;5076738;28;20060;-80
2023/05/08 05:41:02;;;;;;;7.53;3.85;;;;;;;;;;5073029;28;20114;-79
2023/05/08 05:43:28;;;;;;;6.43;3.67;;;;;;;;;;5076759;28;20028;-81
2023/05/08 05:45:56;;;;;;;8.07;4.00;;;;;;;;;;5071859;28;20035;-81
2023/05/08 05:48:21;;;;;;;7.50;3.60;;;;;;;;;;5080274;28;20530;-81
2023/05/08 05:50:47;;;;;;;6.60;3.78;;;;;;;;;;5080378;28;20020;-82
2023/05/08 05:53:12;;;;;;;10.68;4.30;;;;;;;;;;5077709;28;20024;-83
2023/05/08 05:55:38;;;;;;;8.25;3.72;;;;;;;;;;5078179;28;20017;-82
2023/05/08 05:58:03;;;;;;;6.43;3.83;;;;;;;;;;5072905;28;20094;-82
2023/05/08 06:00:30;;;;;;;6.28;4.30;;;;;;;;;;5071796;28;20097;-83
2023/05/08 06:02:56;;;;;;;5.47;4.35;;;;;;;;;;5074791;28;20079;-82
2023/05/08 06:05:22;;;;;;;6.13;3.88;;;;;;;;;;5076866;28;20057;-82
2023/05/08 06:07:47;;;;;;;5.63;3.83;;;;;;;;;;5076366;28;20056;-82
2023/05/08 06:10:13;;;;;;;6.25;4.43;;;;;;;;;;5078247;28;20426;-84
2023/05/08 06:12:38;;;;;;;6.97;3.63;;;;;;;;;;5072785;28;20032;-81
2023/05/08 06:15:04;;;;;;;6.53;4.30;;;;;;;;;;5071513;28;20155;-81
2023/05/08 06:17:30;;;;;;;5.43;3.88;;;;;;;;;;5071633;28;20484;-83
2023/05/08 06:19:56;;;;;;;9.52;3.95;;;;;;;;;;5083020;28;20035;-84
2023/05/08 06:22:22;;;;;;;6.20;4.55;;;;;;;;;;5075175;28;20028;-85
2023/05/08 06:24:48;;;;;;;8.82;4.03;;;;;;;;;;5068570;28;20017;-82
2023/05/08 06:27:14;;;;;;;6.03;4.25;;;;;;;;;;5071872;28;20103;-82
2023/05/08 06:29:39;;;;;;;9.10;4.28;;;;;;;;;;5075333;28;20486;-84
2023/05/08 06:32:05;;;;;;;5.95;4.10;;;;;;;;;;5080106;28;20035;-83
2023/05/08 06:34:30;;;;;;;9.70;4.68;;;;;;;;;;5079184;28;20039;-80
2023/05/08 06:36:55;;;;;;;6.63;3.92;;;;;;;;;;5078659;28;20037;-81
2023/05/08 06:39:21;;;;;;;5.13;3.88;;;;;;;;;;5080886;28;20024;-79
2023/05/08 06:41:47;;;;;;;8.85;3.95;;;;;;;;;;5069217;28;20031;-83
2023/05/08 06:44:13;;;;;;;7.30;4.07;;;;;;;;;;5080060;28;20441;-83
2023/05/08 06:46:38;;;;;;;12.07;3.90;;;;;;;;;;5074829;28;20047;-82
2023/05/08 06:49:04;;;;;;;8.07;4.50;;;;;;;;;;5075398;28;20034;-80
2023/05/08 06:51:30;;;;;;;4.60;3.63;;;;;;;;;;5084037;28;20032;-82
2023/05/08 06:53:55;;;;;;;6.07;3.97;;;;;;;;;;5079432;28;20021;-81
2023/05/08 06:56:21;;;;;;;10.05;4.38;;;;;;;;;;5085370;28;20028;-87
2023/05/08 06:58:47;;;;;;;10.80;3.88;;;;;;;;;;5077784;28;20369;-83
2023/05/08 07:01:13;;;;;;;7.95;4.13;;;;;;;;;;5078849;28;20059;-86
2023/05/08 07:03:40;;;;;;;6.63;3.42;;;;;;;;;;5068650;28;20542;-82
2023/05/08 07:06:09;;;;;;;11.27;4.18;;;;;;;;;;5116888;27;20028;-82
2023/05/08 07:08:35;;;;;;;11.70;3.83;;;;;;;;;;5078430;28;20025;-83
2023/05/08 07:11:00;;;;;;;6.13;3.75;;;;;;;;;;5077818;28;20165;-84
2023/05/08 07:13:26;;;;;;;6.03;4.32;;;;;;;;;;5085333;28;20028;-84
2023/05/08 07:15:52;;;;;;;5.68;3.47;;;;;;;;;;5079918;28;20427;-83
2023/05/08 07:18:19;;;;;;;9.25;4.15;;;;;;;;;;5073801;28;20029;-82
2023/05/08 07:20:44;;;;;;;5.72;4.00;;;;;;;;;;5075218;28;20431;-82
2023/05/08 07:23:09;;;;;;;5.80;3.30;;;;;;;;;;5078166;28;20020;-84
2023/05/08 07:25:36;;;;;;;5.20;3.10;;;;;;;;;;5076358;28;20017;-85
2023/05/08 07:28:03;;;;;;;5.90;3.95;;;;;;;;;;5078543;28;20488;-83
2023/05/08 07:30:28;;;;;;;8.40;3.65;;;;;;;;;;5083161;28;20036;-85
2023/05/08 07:32:54;;;;;;;9.27;3.90;;;;;;;;;;5077352;28;20020;-85
2023/05/08 07:35:19;;;;;;;6.75;4.20;;;;;;;;;;5080676;28;20045;-81
2023/05/08 07:37:44;;;;;;;7.90;3.83;;;;;;;;;;5078148;28;20051;-84
2023/05/08 07:40:10;;;;;;;6.97;3.47;;;;;;;;;;5076211;28;20021;-82
2023/05/08 07:42:43;;;;;;;7.45;3.50;;;;;;;;;;5080808;28;20021;-80
2023/05/08 07:45:10;;;;;;;6.50;4.53;;;;;;;;;;5084394;28;20060;-80
2023/05/08 07:47:37;;;;;;;6.93;4.65;;;;;;;;;;5083379;28;20049;-79
2023/05/08 07:50:02;;;;;;;6.68;3.85;;;;;;;;;;5076218;28;20481;-84
2023/05/08 07:52:28;;;;;;;10.18;4.68;;;;;;;;;;5076412;28;20162;-79
2023/05/08 07:54:54;;;;;;;9.23;4.82;;;;;;;;;;5079357;28;20055;-81
2023/05/08 07:57:19;;;;;;;7.60;5.03;;;;;;;;;;5084336;28;20036;-85
2023/05/08 07:59:45;;;;;;;9.65;5.68;;;;;;;;;;5082445;28;20028;-80
2023/05/08 08:02:10;;;;;;;12.93;6.40;;;;;;;;;;5077922;28;20503;-82
2023/05/08 08:04:36;;;;;;;7.72;5.60;;;;;;;;;;5080482;28;20163;-80
2023/05/08 08:07:01;;;;;;;8.73;5.43;;;;;;;;;;5078298;28;20074;-84
2023/05/08 08:09:27;;;;;;;9.65;5.13;;;;;;;;;;5081481;28;20012;-81
2023/05/08 08:11:52;;;;;;;9.27;5.90;;;;;;;;;;5075155;28;20736;-86
2023/05/08 08:14:17;;;;;;;9.05;5.72;;;;;;;;;;5065175;28;20157;-84
2023/05/08 08:16:43;;;;;;;9.90;5.82;;;;;;;;;;5075700;28;20028;-81
2023/05/08 08:19:09;;;;;;;13.02;6.45;;;;;;;;;;5080256;28;20055;-84
2023/05/08 08:21:35;;;;;;;13.18;5.85;;;;;;;;;;5077279;28;20031;-82
2023/05/08 08:24:00;;;;;;;8.63;5.72;;;;;;;;;;5088204;28;20471;-81
2023/05/08 08:26:26;;;;;;;10.93;5.32;;;;;;;;;;5076710;28;20028;-81
2023/05/08 08:28:52;;;;;;;8.95;4.68;;;;;;;;;;5076925;28;20044;-83
2023/05/08 08:31:18;;;;;;;9.50;5.00;;;;;;;;;;5075968;28;20047;-81
2023/05/08 08:33:44;;;;;;;7.18;3.95;;;;;;;;;;5077811;28;20127;-81
2023/05/08 08:36:13;;;;;;;8.32;3.63;;;;;;;;;;5078973;28;20547;-81
2023/05/08 08:38:39;;;;;;;4.88;3.42;;;;;;;;;;5080222;28;20027;-83
2023/05/08 08:41:04;;;;;;;4.95;3.28;;;;;;;;;;5079685;28;20387;-80
2023/05/08 08:43:30;;;;;;;5.95;3.25;;;;;;;;;;5078521;28;20032;-81
2023/05/08 08:45:58;;;;;;;8.23;3.40;;;;;;;;;;5085513;28;20024;-85
2023/05/08 08:48:27;;;;;;;4.57;3.00;;;;;;;;;;5081730;28;20016;-80
2023/05/08 08:50:59;;;;;;;5.68;3.35;;;;;;;;;;5081437;28;20487;-82
2023/05/08 08:53:27;;;;;;;5.32;3.55;;;;;;;;;;5078777;28;20476;-83
2023/05/08 08:55:55;;;;;;;6.50;3.25;;;;;;;;;;5106104;27;20112;-83
2023/05/08 08:58:35;;;;;;;6.15;3.63;;;;;;;;;;5078880;28;20024;-81
2023/05/08 09:01:02;;;;;;;5.10;3.53;;;;;;;;;;5072886;28;20127;-82
2023/05/08 09:03:30;;;;;;;6.55;3.65;;;;;;;;;;5081391;28;20024;-82
2023/05/08 09:06:00;;;;;;;8.93;4.35;;;;;;;;;;5078507;28;20032;-81
2023/05/08 09:08:26;;;;;;;8.15;4.00;;;;;;;;;;5072095;28;20016;-83
2023/05/08 09:10:54;;;;;;;10.93;4.20;;;;;;;;;;5071839;28;20050;-83
2023/05/08 09:13:20;;;;;;;8.27;3.88;;;;;;;;;;5072458;28;20016;-82
2023/05/08 09:15:46;;;;;;;6.13;3.53;;;;;;;;;;5077929;28;20507;-81
2023/05/08 09:18:14;;;;;;;5.75;3.75;;;;;;;;;;5075658;28;20029;-82
2023/05/08 09:20:40;;;;;;;7.80;3.90;;;;;;;;;;5080197;28;20103;-82
2023/05/08 09:23:06;;;;;;;10.13;3.40;;;;;;;;;;5071099;28;20491;-82
2023/05/08 09:25:46;;;;;;;8.80;3.65;;;;;;;;;;5083633;28;20491;-82
2023/05/08 09:28:19;;;;;;;5.03;3.28;;;;;;;;;;5105338;27;20063;-82
2023/05/08 09:31:10;;;;;;;5.90;3.50;;;;;;;;;;5070736;28;20025;-82
2023/05/08 09:33:43;;;;;;;5.07;3.40;;;;;;;;;;5106856;27;20066;-83
2023/05/08 09:36:25;;;;;;;5.35;3.17;;;;;;;;;;5076688;28;20071;-83
2023/05/08 09:38:51;;;;;;;5.43;3.80;;;;;;;;;;5077547;28;20515;-83
2023/05/08 09:41:16;;;;;;;5.70;3.72;;;;;;;;;;5112325;27;20024;-82
2023/05/08 09:44:04;;;;;;;8.38;4.50;;;;;;;;;;5078132;28;20016;-82
2023/05/08 09:46:31;;;;;;;4.65;3.47;;;;;;;;;;5071270;28;20032;-83
2023/05/08 09:48:58;;;;;;;4.68;3.83;;;;;;;;;;5075610;28;20056;-83
2023/05/08 09:51:26;;;;;;;4.45;3.35;;;;;;;;;;5077410;28;20028;-90
2023/05/08 09:53:53;;;;;;;7.43;3.83;;;;;;;;;;5078663;28;20429;-81
2023/05/08 09:56:35;;;;;;;9.77;4.32;;;;;;;;;;5074045;28;20082;-85
2023/05/08 09:59:03;;;;;;;7.95;3.60;;;;;;;;;;5072400;28;20098;-81
2023/05/08 10:01:34;;;;;;;7.00;4.22;;;;;;;;;;5084465;28;20744;-82
2023/05/08 10:04:00;;;;;;;7.53;3.97;;;;;;;;;;5073784;28;20024;-82
2023/05/08 10:06:27;;;;;;;7.30;4.40;;;;;;;;;;5072639;28;20016;-83
2023/05/08 10:09:13;;;;;;;5.75;3.42;;;;;;;;;;5069760;28;20028;-83
2023/05/08 10:11:40;;;;;;;6.72;4.38;;;;;;;;;;5084186;28;20047;-83
2023/05/08 10:14:06;;;;;;;9.30;4.93;;;;;;;;;;5076486;28;20089;-82
2023/05/08 10:16:40;;;;;;;4.88;4.22;;;;;;;;;;5076108;28;20021;-82
2023/05/08 10:19:12;;;;;;;11.45;4.13;;;;;;;;;;5079082;28;20035;-86
2023/05/08 10:21:41;;;;;;;7.63;4.30;;;;;;;;;;5070541;28;20063;-85
2023/05/08 10:24:13;;;;;;;6.75;4.57;;;;;;;;;;5073258;28;20107;-84
2023/05/08 10:26:42;;;;;;;9.32;4.82;;;;;;;;;;5077627;28;20050;-82
2023/05/08 10:29:16;;;;;;;9.65;4.32;;;;;;;;;;5084271;28;20425;-82
2023/05/08 10:31:45;;;;;;;8.35;4.25;;;;;;;;;;5086705;28;20060;-88
2023/05/08 10:34:17;;;;;;;6.90;3.70;;;;;;;;;;5079355;28;20518;-83
2023/05/08 10:36:45;;;;;;;11.02;4.43;;;;;;;;;;5077683;28;20040;-87
2023/05/08 10:39:14;;;;;;;6.68;3.88;;;;;;;;;;5080801;28;20028;-84
2023/05/08 10:41:40;;;;;;;8.93;4.70;;;;;;;;;;5087655;28;20373;-81
2023/05/08 10:44:07;;;;;;;7.35;4.72;;;;;;;;;;5086102;28;20269;-83
2023/05/08 10:46:48;;;;;;;5.85;4.35;;;;;;;;;;5081405;28;20029;-83
2023/05/08 10:49:56;;;;;;;5.43;4.07;;;;;;;;;;5082499;28;20037;-80
2023/05/08 10:53:02;;;;;;;10.32;3.92;;;;;;;;;;5081232;28;20032;-80
2023/05/08 10:55:30;;;;;;;7.82;4.38;;;;;;;;;;5085258;28;20365;-85
2023/05/08 10:58:14;;;;;;;6.78;5.00;;;;;;;;;;5084499;28;20028;-81
2023/05/08 11:00:48;;;;;;;6.35;4.15;;;;;;;;;;5088799;28;20051;-84
2023/05/08 11:03:15;;;;;;;7.65;4.80;;;;;;;;;;5083420;28;20107;-82
2023/05/08 11:05:49;;;;;;;6.93;4.13;;;;;;;;;;5085127;28;20110;-84
2023/05/08 11:08:17;;;;;;;5.43;3.97;;;;;;;;;;5081581;28;20045;-83
2023/05/08 11:10:47;;;;;;;8.95;5.05;;;;;;;;;;5087371;28;20070;-83
2023/05/08 11:13:13;;;;;;;8.60;4.18;;;;;;;;;;5074994;28;20039;-80
2023/05/08 11:15:40;;;;;;;5.10;3.97;;;;;;;;;;5083523;28;20063;-81
2023/05/08 11:18:08;;;;;;;6.63;4.38;;;;;;;;;;5082785;28;20038;-81
2023/05/08 11:20:38;;;;;;;7.68;4.30;;;;;;;;;;5078320;28;20055;-83
2023/05/08 11:23:23;;;;;;;7.95;4.47;;;;;;;;;;5078807;28;20028;-83
2023/05/08 11:26:23;;;;;;;6.45;4.18;;;;;;;;;;5083525;28;20029;-82
2023/05/08 11:28:52;;;;;;;9.45;4.90;;;;;;;;;;5080664;28;20131;-83
2023/05/08 11:31:17;;;;;;;9.88;4.13;;;;;;;;;;5083057;28;20411;-82
2023/05/08 11:33:42;;;;;;;7.30;5.25;;;;;;;;;;5088096;28;20031;-84
2023/05/08 11:36:14;;;;;;;6.60;4.50;;;;;;;;;;5080391;28;20042;-86
2023/05/08 11:38:42;;;;;;;7.28;3.83;;;;;;;;;;5074541;28;20040;-85
2023/05/08 11:41:24;;;;;;;6.10;4.47;;;;;;;;;;5073346;28;20028;-82
2023/05/08 11:44:03;;;;;;;7.15;4.97;;;;;;;;;;5078009;28;20062;-85
2023/05/08 11:46:41;;;;;;;5.57;3.88;;;;;;;;;;5084090;28;20043;-85
2023/05/08 11:49:11;;;;;;;5.57;4.03;;;;;;;;;;5078625;28;20380;-82
2023/05/08 11:51:37;;;;;;;9.18;5.40;;;;;;;;;;5083582;28;20423;-87
2023/05/08 11:54:03;;;;;;;7.70;4.10;;;;;;;;;;5079034;28;20477;-85
2023/05/08 11:56:30;;;;;;;9.57;3.85;;;;;;;;;;5085777;28;20032;-83
2023/05/08 11:59:03;;;;;;;6.78;4.45;;;;;;;;;;5074451;28;20024;-92
2023/05/08 12:01:30;;;;;;;8.07;3.65;;;;;;;;;;5081859;28;20748;-87
2023/05/08 12:04:09;;;;;;;8.93;3.72;;;;;;;;;;5077878;28;20107;-86
2023/05/08 12:06:37;;;;;;;5.15;3.63;;;;;;;;;;5079531;28;20060;-82
2023/05/08 12:09:09;;;;;;;7.20;3.55;;;;;;;;;;5077157;28;20024;-86
2023/05/08 12:11:35;;;;;;;6.20;3.55;;;;;;;;;;5075511;28;20040;-86
2023/05/08 12:14:00;;;;;;;7.97;4.13;;;;;;;;;;5081191;28;20026;-85
2023/05/08 12:16:25;;;;;;;8.30;2.95;;;;;;;;;;5078893;28;20104;-86
2023/05/08 12:18:52;;;;;;;5.35;3.78;;;;;;;;;;5085464;28;20024;-85
2023/05/08 12:21:18;;;;;;;6.00;3.20;;;;;;;;;;5080296;28;20577;-84
2023/05/08 12:23:44;;;;;;;6.82;3.58;;;;;;;;;;5079542;28;20428;-85
2023/05/08 12:26:11;;;;;;;3.92;3.10;;;;;;;;;;5078373;28;20020;-85
2023/05/08 12:28:38;;;;;;;6.22;3.45;;;;;;;;;;5078876;28;20016;-84
2023/05/08 12:31:03;;;;;;;3.92;2.97;;;;;;;;;;5074784;28;20090;-83
2023/05/08 12:33:29;;;;;;;4.53;3.38;;;;;;;;;;5072480;28;20387;-81
2023/05/08 12:35:55;;;;;;;3.95;2.97;;;;;;;;;;5075161;28;20098;-82
2023/05/08 12:38:28;;;;;;;5.13;3.60;;;;;;;;;;5078864;28;20502;-80
2023/05/08 12:40:54;;;;;;;4.35;3.45;;;;;;;;;;5087419;28;20028;-81
2023/05/08 12:43:20;;;;;;;5.45;3.45;;;;;;;;;;5077436;28;20392;-82
2023/05/08 12:45:51;;;;;;;8.02;4.10;;;;;;;;;;5080847;28;20029;-82
2023/05/08 12:48:16;;;;;;;5.40;3.72;;;;;;;;;;5078320;28;20025;-82
2023/05/08 12:50:44;;;;;;;6.15;4.40;;;;;;;;;;5075977;28;20032;-83
2023/05/08 12:53:15;;;;;;;10.90;5.78;;;;;;;;;;5072929;28;20024;-86
2023/05/08 12:55:51;;;;;;;8.07;4.25;;;;;;;;;;5078096;28;20361;-83
2023/05/08 12:58:17;;;;;;;7.00;3.92;;;;;;;;;;5066467;28;20162;-84
2023/05/08 13:00:48;;;;;;;5.18;2.67;;;;;;;;;;5077626;28;20020;-85
2023/05/08 13:03:24;;;;;;;4.57;3.10;;;;;;;;;;5081985;28;20383;-86
2023/05/08 13:05:51;;;;;;;4.25;2.60;;;;;;;;;;5081541;28;20090;-82
2023/05/08 13:08:17;;;;;;;4.10;3.17;;;;;;;;;;5073086;28;20025;-84
2023/05/08 13:10:51;;;;;;;4.97;2.67;;;;;;;;;;5076000;28;20444;-85
2023/05/08 13:13:21;;;;;;;5.45;3.15;;;;;;;;;;5075057;28;20028;-87
2023/05/08 13:15:48;;;;;;;5.65;2.80;;;;;;;;;;5071795;28;20143;-86
2023/05/08 13:18:14;;;;;;;4.20;3.00;;;;;;;;;;5080231;28;20107;-85
2023/05/08 13:20:40;;;;;;;4.35;3.08;;;;;;;;;;5075137;28;20032;-84
2023/05/08 13:23:07;;;;;;;3.33;2.75;;;;;;;;;;5073937;28;20020;-87
2023/05/08 13:25:34;;;;;;;4.43;2.95;;;;;;;;;;5069594;28;20472;-82
2023/05/08 13:27:59;;;;;;;5.20;2.83;;;;;;;;;;5069211;28;20028;-86
2023/05/08 13:30:26;;;;;;;4.93;3.63;;;;;;;;;;5077143;28;20102;-79
2023/05/08 13:32:52;;;;;;;6.95;3.22;;;;;;;;;;5074391;28;20403;-85
2023/05/08 13:35:18;;;;;;;4.95;3.33;;;;;;;;;;5076337;28;20072;-81
2023/05/08 13:37:43;;;;;;;5.47;3.63;;;;;;;;;;5080316;28;20051;-84
2023/05/08 13:40:09;;;;;;;4.57;3.42;;;;;;;;;;5072730;28;20844;-80
2023/05/08 13:42:36;;;;;;;4.45;3.15;;;;;;;;;;5075567;28;20020;-84
2023/05/08 13:45:04;;;;;;;6.25;3.53;;;;;;;;;;5077441;28;20410;-81
2023/05/08 13:47:30;;;;;;;5.03;3.30;;;;;;;;;;5076993;28;20025;-82
2023/05/08 13:49:55;;;;;;;4.40;3.83;;;;;;;;;;5084432;28;20016;-84
2023/05/08 13:52:21;;;;;;;7.22;3.20;;;;;;;;;;5077125;28;20443;-88
2023/05/08 13:54:46;;;;;;;7.45;3.25;;;;;;;;;;5075859;28;20377;-82
2023/05/08 13:57:11;;;;;;;3.70;2.92;;;;;;;;;;5076045;28;20074;-84
2023/05/08 13:59:37;;;;;;;5.60;3.72;;;;;;;;;;5076465;28;20051;-81
2023/05/08 14:02:03;;;;;;;5.50;3.58;;;;;;;;;;5077089;28;20052;-82
2023/05/08 14:04:28;;;;;;;6.47;3.65;;;;;;;;;;5076859;28;20079;-84
2023/05/08 14:06:54;;;;;;;4.50;2.83;;;;;;;;;;5075561;28;20020;-87
2023/05/08 14:09:19;;;;;;;5.90;3.58;;;;;;;;;;5070801;28;20032;-81
2023/05/08 14:11:45;;;;;;;5.97;3.60;;;;;;;;;;5071360;28;20024;-83
2023/05/08 14:14:10;;;;;;;4.13;2.92;;;;;;;;;;5074065;28;20073;-82
2023/05/08 14:16:35;;;;;;;5.07;3.28;;;;;;;;;;5066107;28;20388;-81
2023/05/08 14:19:03;;;;;;;5.20;3.38;;;;;;;;;;5068700;28;20043;-83
2023/05/08 14:21:30;;;;;;;7.63;4.10;;;;;;;;;;5080808;28;20074;-81
2023/05/08 14:23:55;;;;;;;6.78;4.40;;;;;;;;;;5079105;28;20379;-81
2023/05/08 14:26:21;;;;;;;5.65;3.67;;;;;;;;;;5075309;28;20107;-80
2023/05/08 14:28:46;;;;;;;5.25;3.78;;;;;;;;;;5070904;28;20044;-84
2023/05/08 14:31:12;;;;;;;6.47;4.15;;;;;;;;;;5082220;28;20030;-82
2023/05/08 14:33:38;;;;;;;7.28;4.70;;;;;;;;;;5081284;28;20050;-84
2023/05/08 14:36:03;;;;;;;7.25;4.13;;;;;;;;;;5076451;28;20060;-82
2023/05/08 14:38:28;;;;;;;10.45;4.07;;;;;;;;;;5066607;28;20588;-85
2023/05/08 14:40:54;;;;;;;9.60;4.57;;;;;;;;;;5072229;28;20426;-84
2023/05/08 14:43:20;;;;;;;8.10;4.15;;;;;;;;;;5069798;28;20043;-84
2023/05/08 14:45:46;;;;;;;7.07;4.15;;;;;;;;;;5077291;28;20036;-85
2023/05/08 14:48:11;;;;;;;6.43;3.53;;;;;;;;;;5072249;28;20032;-84
2023/05/08 14:50:37;;;;;;;5.75;4.68;;;;;;;;;;5072503;28;20048;-81
2023/05/08 14:53:02;;;;;;;8.30;4.07;;;;;;;;;;5071447;28;20119;-83
2023/05/08 14:55:27;;;;;;;5.03;3.67;;;;;;;;;;5075587;28;20400;-81